createdAt,value
2022-11-04T00:01:44.080Z,9.30
2022-11-04T00:04:30.726Z,9.30
2022-11-04T00:07:35.126Z,9.30
2022-11-04T00:10:41.255Z,9.30
2022-11-04T00:13:30.185Z,9.40
2022-11-04T00:16:34.541Z,9.40
2022-11-04T00:19:20.722Z,9.30
2022-11-04T00:22:26.649Z,9.30
2022-11-04T00:25:32.270Z,9.30
2022-11-04T00:28:38.646Z,9.30
2022-11-04T00:31:43.046Z,9.30
2022-11-04T00:34:31.474Z,9.30
2022-11-04T00:37:20.275Z,9.30
2022-11-04T00:40:07.860Z,9.30
2022-11-04T00:42:59.731Z,9.30
2022-11-04T00:45:46.153Z,9.30
2022-11-04T00:48:31.916Z,9.30
2022-11-04T00:51:18.151Z,9.30
2022-11-04T00:54:04.341Z,9.30
2022-11-04T00:56:51.051Z,9.30
2022-11-04T00:59:37.516Z,9.30
2022-11-04T01:02:23.880Z,9.30
2022-11-04T01:05:13.939Z,9.30
2022-11-04T01:08:00.015Z,9.30
2022-11-04T01:10:46.009Z,9.30
2022-11-04T01:13:32.314Z,9.40
2022-11-04T01:16:19.145Z,9.30
2022-11-04T01:19:05.495Z,9.40
2022-11-04T01:21:52.878Z,9.40
2022-11-04T01:24:39.034Z,9.40
2022-11-04T01:27:24.867Z,9.40
2022-11-04T01:30:11.392Z,9.40
2022-11-04T01:32:57.301Z,9.40
2022-11-04T01:35:43.243Z,9.40
2022-11-04T01:38:29.269Z,9.40
2022-11-04T01:41:26.507Z,9.40
2022-11-04T01:44:51.163Z,9.30
2022-11-04T01:47:50.302Z,9.30
2022-11-04T01:50:39.999Z,9.30
2022-11-04T01:53:32.949Z,9.30
2022-11-04T01:56:20.687Z,9.30
2022-11-04T01:59:13.942Z,9.20
2022-11-04T02:02:00.262Z,9.20
2022-11-04T02:04:46.980Z,9.20
2022-11-04T02:07:33.810Z,9.20
2022-11-04T02:10:23.442Z,9.30
2022-11-04T02:13:09.638Z,9.20
2022-11-04T02:16:07.759Z,9.20
2022-11-04T02:18:59.325Z,9.20
2022-11-04T02:22:03.536Z,9.20
2022-11-04T02:25:28.354Z,9.30
2022-11-04T02:28:17.609Z,9.20
2022-11-04T02:31:44.665Z,9.20
2022-11-04T02:34:37.822Z,9.20
2022-11-04T02:37:51.115Z,9.20
2022-11-04T02:40:49.894Z,9.20
2022-11-04T02:44:02.403Z,9.20
2022-11-04T02:47:13.496Z,9.20
2022-11-04T02:50:23.594Z,9.20
2022-11-04T02:53:15.051Z,9.20
2022-11-04T02:56:03.501Z,9.20
2022-11-04T02:58:57.716Z,9.20
2022-11-04T03:01:47.836Z,9.20
2022-11-04T03:04:46.991Z,9.30
2022-11-04T03:07:39.689Z,9.30
2022-11-04T03:10:35.623Z,9.30
2022-11-04T03:13:46.449Z,9.30
2022-11-04T03:16:35.806Z,9.30
2022-11-04T03:19:40.463Z,9.30
2022-11-04T03:22:30.166Z,9.30
2022-11-04T03:25:16.598Z,9.10
2022-11-04T03:28:06.830Z,9.10
2022-11-04T03:30:59.131Z,9.10
2022-11-04T03:33:53.393Z,9.10
2022-11-04T03:36:39.288Z,9.10
2022-11-04T03:39:25.396Z,9.10
2022-11-04T03:42:23.214Z,9.00
2022-11-04T03:45:11.216Z,9.00
2022-11-04T03:47:58.063Z,9.00
2022-11-04T03:50:47.990Z,8.90
2022-11-04T03:53:34.239Z,8.90
2022-11-04T03:56:38.737Z,8.80
2022-11-04T03:59:24.652Z,8.80
2022-11-04T04:02:18.316Z,8.80
2022-11-04T04:05:16.024Z,8.80
2022-11-04T04:08:22.926Z,8.70
2022-11-04T04:11:52.754Z,8.70
2022-11-04T04:14:48.986Z,8.60
2022-11-04T04:17:45.223Z,8.60
2022-11-04T04:20:35.434Z,8.60
2022-11-04T04:23:45.430Z,8.60
2022-11-04T04:26:53.754Z,8.60
2022-11-04T04:29:40.607Z,8.60
2022-11-04T04:32:29.817Z,8.40
2022-11-04T04:35:35.704Z,8.50
2022-11-04T04:38:42.908Z,8.50
2022-11-04T04:41:50.502Z,8.50
2022-11-04T04:44:55.052Z,8.50
2022-11-04T04:47:46.572Z,8.50
2022-11-04T04:50:37.243Z,8.40
2022-11-04T04:53:23.661Z,8.50
2022-11-04T04:56:09.481Z,8.40
2022-11-04T04:58:55.428Z,8.40
2022-11-04T05:01:43.499Z,8.40
2022-11-04T05:04:29.958Z,8.40
2022-11-04T05:07:16.121Z,8.30
2022-11-04T05:14:02.658Z,8.30
2022-11-04T05:16:48.878Z,8.20
2022-11-04T05:19:34.885Z,8.10
2022-11-04T05:22:20.846Z,8.20
2022-11-04T05:25:07.095Z,8.10
2022-11-04T05:27:54.366Z,8.10
2022-11-04T05:30:41.153Z,8.20
2022-11-04T05:33:27.144Z,8.00
2022-11-04T05:36:16.011Z,8.00
2022-11-04T05:39:05.718Z,8.00
2022-11-04T05:41:51.897Z,8.00
2022-11-04T05:44:37.731Z,8.00
2022-11-04T05:47:23.537Z,8.00
2022-11-04T05:50:10.439Z,8.00
2022-11-04T05:53:00.860Z,8.00
2022-11-04T05:55:47.172Z,7.90
2022-11-04T05:58:33.354Z,7.90
2022-11-04T06:01:31.419Z,7.80
2022-11-04T06:04:19.157Z,7.90
2022-11-04T06:07:06.588Z,7.80
2022-11-04T06:09:52.802Z,7.90
2022-11-04T06:12:38.920Z,7.90
2022-11-04T06:15:25.344Z,7.90
2022-11-04T06:18:11.533Z,7.80
2022-11-04T06:21:14.424Z,7.90
2022-11-04T06:24:00.880Z,7.80
2022-11-04T06:26:47.041Z,7.80
2022-11-04T06:29:33.069Z,7.70
2022-11-04T06:32:19.524Z,7.70
2022-11-04T06:35:05.979Z,7.50
2022-11-04T06:37:54.622Z,7.60
2022-11-04T06:40:40.616Z,7.60
2022-11-04T06:43:26.765Z,7.50
2022-11-04T06:46:26.758Z,7.50
2022-11-04T06:49:15.114Z,7.50
2022-11-04T06:52:02.467Z,7.40
2022-11-04T06:54:48.607Z,7.40
2022-11-04T06:57:34.966Z,7.40
2022-11-04T07:00:21.067Z,7.30
2022-11-04T07:03:08.270Z,7.30
2022-11-04T07:05:54.586Z,7.30
2022-11-04T07:08:41.048Z,7.50
2022-11-04T07:11:29.406Z,7.30
2022-11-04T07:14:15.346Z,7.20
2022-11-04T07:17:02.019Z,7.20
2022-11-04T07:19:49.073Z,7.20
2022-11-04T07:22:35.005Z,7.20
2022-11-04T07:25:20.994Z,7.20
2022-11-04T07:28:07.061Z,7.10
2022-11-04T07:30:56.483Z,7.20
2022-11-04T07:33:43.045Z,7.20
2022-11-04T07:36:32.244Z,7.10
2022-11-04T07:39:18.469Z,7.10
2022-11-04T07:42:04.727Z,7.20
2022-11-04T07:44:50.877Z,7.10
2022-11-04T07:47:36.984Z,7.20
2022-11-04T07:50:22.841Z,7.20
2022-11-04T07:52:56.306Z,7.20
2022-11-04T07:55:44.293Z,7.20
2022-11-04T07:58:30.428Z,7.20
2022-11-04T08:01:19.798Z,7.20
2022-11-04T08:04:07.235Z,7.30
2022-11-04T08:06:54.535Z,7.30
2022-11-04T08:09:41.036Z,7.30
2022-11-04T08:12:28.098Z,7.30
2022-11-04T08:15:14.504Z,7.30
2022-11-04T08:18:00.399Z,7.40
2022-11-04T08:20:50.544Z,7.40
2022-11-04T08:23:37.291Z,7.40
2022-11-04T08:26:24.923Z,7.40
2022-11-04T08:29:11.151Z,7.50
2022-11-04T08:31:57.260Z,7.50
2022-11-04T08:34:43.350Z,7.40
2022-11-04T08:37:29.175Z,7.60
2022-11-04T08:40:15.174Z,7.60
2022-11-04T08:43:01.733Z,7.60
2022-11-04T08:45:47.576Z,7.60
2022-11-04T08:48:35.723Z,7.70
2022-11-04T08:51:25.336Z,7.70
2022-11-04T08:54:11.240Z,7.70
2022-11-04T08:56:58.871Z,7.80
2022-11-04T08:59:44.989Z,7.70
2022-11-04T09:02:30.794Z,7.80
2022-11-04T09:05:16.922Z,7.90
2022-11-04T09:08:04.931Z,7.90
2022-11-04T09:10:51.309Z,7.90
2022-11-04T09:13:39.830Z,7.90
2022-11-04T09:16:26.611Z,7.90
2022-11-04T09:19:12.775Z,8.00
2022-11-04T09:21:58.680Z,8.00
2022-11-04T09:24:44.742Z,8.20
2022-11-04T09:27:30.571Z,8.20
2022-11-04T09:30:17.953Z,8.30
2022-11-04T09:33:04.154Z,8.30
2022-11-04T09:35:57.694Z,8.30
2022-11-04T09:38:44.885Z,8.40
2022-11-04T09:41:56.769Z,8.50
2022-11-04T09:48:10.516Z,8.60
2022-11-04T09:51:00.017Z,8.60
2022-11-04T09:53:57.295Z,8.60
2022-11-04T09:56:48.150Z,8.70
2022-11-04T09:59:35.048Z,8.70
2022-11-04T10:02:50.077Z,8.80
2022-11-04T10:05:47.845Z,8.80
2022-11-04T10:08:59.793Z,8.90
2022-11-04T10:12:42.129Z,8.90
2022-11-04T10:15:41.455Z,9.00
2022-11-04T10:18:54.442Z,9.00
2022-11-04T10:22:02.038Z,9.10
2022-11-04T10:25:22.255Z,9.10
2022-11-04T10:28:14.568Z,9.20
2022-11-04T10:31:00.821Z,9.20
2022-11-04T10:34:08.825Z,9.30
2022-11-04T10:36:56.893Z,9.30
2022-11-04T10:39:47.440Z,9.40
2022-11-04T10:42:33.651Z,9.40
2022-11-04T10:45:25.978Z,9.50
2022-11-04T10:48:25.324Z,9.50
2022-11-04T10:51:11.215Z,9.50
2022-11-04T10:53:59.052Z,9.50
2022-11-04T10:56:52.417Z,9.60
2022-11-04T10:59:56.865Z,9.60
2022-11-04T11:02:46.472Z,9.60
2022-11-04T11:05:32.652Z,9.60
2022-11-04T11:08:32.909Z,9.70
2022-11-04T11:11:39.585Z,9.70
2022-11-04T11:14:34.900Z,9.80
2022-11-04T11:17:23.874Z,9.80
2022-11-04T11:20:21.535Z,9.80
2022-11-04T11:23:35.010Z,10.00
2022-11-04T11:26:29.361Z,10.00
2022-11-04T11:29:21.471Z,10.00
2022-11-04T11:32:23.251Z,10.10
2022-11-04T11:35:17.745Z,10.20
2022-11-04T11:38:06.022Z,10.20
2022-11-04T11:41:22.707Z,10.40
2022-11-04T11:44:16.804Z,10.40
2022-11-04T11:47:06.449Z,10.50
2022-11-04T11:50:14.950Z,10.40
2022-11-04T11:53:15.425Z,10.50
2022-11-04T11:56:14.962Z,10.60
2022-11-04T12:02:23.156Z,10.60
2022-11-04T12:12:18.699Z,10.70
2022-11-04T12:15:30.167Z,10.70
2022-11-04T12:18:25.470Z,10.70
2022-11-04T12:21:33.400Z,10.80
2022-11-04T12:24:34.827Z,10.80
2022-11-04T12:27:26.593Z,10.80
2022-11-04T12:30:17.500Z,10.90
2022-11-04T12:33:46.110Z,10.90
2022-11-04T12:37:03.140Z,11.00
2022-11-04T12:39:56.226Z,11.00
2022-11-04T12:43:08.500Z,11.00
2022-11-04T12:46:06.757Z,11.00
2022-11-04T12:49:10.050Z,11.10
2022-11-04T12:52:23.800Z,11.20
2022-11-04T12:55:26.342Z,11.20
2022-11-04T12:58:23.666Z,11.30
2022-11-04T13:01:28.489Z,11.30
2022-11-04T13:04:21.605Z,11.40
2022-11-04T13:07:19.282Z,11.40
2022-11-04T13:10:12.335Z,11.40
2022-11-04T13:13:02.512Z,11.40
2022-11-04T13:15:54.027Z,11.50
2022-11-04T13:18:41.318Z,11.50
2022-11-04T13:21:36.132Z,11.50
2022-11-04T13:24:32.404Z,11.60
2022-11-04T13:27:39.406Z,11.60
2022-11-04T13:30:48.228Z,11.60
2022-11-04T13:33:54.231Z,11.70
2022-11-04T13:37:08.627Z,11.70
2022-11-04T13:40:14.067Z,11.70
2022-11-04T13:43:35.623Z,11.80
2022-11-04T13:46:30.465Z,11.80
2022-11-04T13:49:30.277Z,11.80
2022-11-04T13:52:16.679Z,11.90
2022-11-04T13:55:06.837Z,12.00
2022-11-04T13:57:57.134Z,12.00
2022-11-04T14:01:25.400Z,12.10
2022-11-04T14:04:15.396Z,12.10
2022-11-04T14:07:08.417Z,12.20
2022-11-04T14:09:55.604Z,12.40
2022-11-04T14:12:42.014Z,12.50
2022-11-04T14:16:00.169Z,12.70
2022-11-04T14:18:48.487Z,12.90
2022-11-04T14:22:09.983Z,13.10
2022-11-04T14:25:20.610Z,13.30
2022-11-04T14:28:09.675Z,13.50
2022-11-04T14:31:09.000Z,13.60
2022-11-04T14:33:58.830Z,13.60
2022-11-04T14:36:47.667Z,13.70
2022-11-04T14:39:39.030Z,13.60
2022-11-04T14:42:51.715Z,13.50
2022-11-04T14:45:40.045Z,13.40
2022-11-04T14:48:28.321Z,13.30
2022-11-04T14:51:28.871Z,13.10
2022-11-04T14:54:24.852Z,12.90
2022-11-04T14:57:16.271Z,12.80
2022-11-04T15:00:33.227Z,12.70
2022-11-04T15:06:53.456Z,12.60
2022-11-04T15:09:43.583Z,12.50
2022-11-04T15:13:01.596Z,12.40
2022-11-04T15:15:50.578Z,12.30
2022-11-04T15:18:39.780Z,12.20
2022-11-04T15:21:26.314Z,12.00
2022-11-04T15:24:17.574Z,11.90
2022-11-04T15:27:06.798Z,11.70
2022-11-04T15:29:58.689Z,11.60
2022-11-04T15:33:00.524Z,11.50
2022-11-04T15:35:49.736Z,11.40
2022-11-04T15:38:37.813Z,11.30
2022-11-04T15:41:44.855Z,11.30
2022-11-04T15:44:38.524Z,11.20
2022-11-04T15:47:27.317Z,11.20
2022-11-04T15:50:23.241Z,11.20
2022-11-04T15:53:10.498Z,11.10
2022-11-04T15:55:56.988Z,11.10
2022-11-04T15:58:45.482Z,11.10
2022-11-04T16:01:32.690Z,11.10
2022-11-04T16:04:23.753Z,10.90
2022-11-04T16:07:09.628Z,11.00
2022-11-04T16:09:58.155Z,10.90
2022-11-04T16:12:45.400Z,10.90
2022-11-04T16:15:34.374Z,10.90
2022-11-04T16:18:44.002Z,10.80
2022-11-04T16:21:32.763Z,10.80
2022-11-04T16:24:29.597Z,10.70
2022-11-04T16:27:19.924Z,10.60
2022-11-04T16:30:18.397Z,10.50
2022-11-04T16:33:10.665Z,10.50
2022-11-04T16:35:57.305Z,10.40
2022-11-04T16:38:45.464Z,10.30
2022-11-04T16:41:40.533Z,10.30
2022-11-04T16:44:26.984Z,10.20
2022-11-04T16:47:13.078Z,10.20
2022-11-04T16:50:01.273Z,10.10
2022-11-04T16:52:48.255Z,10.10
2022-11-04T16:55:35.061Z,10.10
2022-11-04T16:58:23.585Z,10.10
2022-11-04T17:01:15.164Z,10.10
2022-11-04T17:04:07.012Z,10.20
2022-11-04T17:06:53.109Z,10.30
2022-11-04T17:09:39.284Z,10.30
2022-11-04T17:12:25.621Z,10.30
2022-11-04T17:15:15.378Z,10.30
2022-11-04T17:18:01.665Z,10.40
2022-11-04T17:20:51.305Z,10.40
2022-11-04T17:23:37.685Z,10.40
2022-11-04T17:26:23.706Z,10.50
2022-11-04T17:29:16.821Z,10.50
2022-11-04T17:32:04.030Z,10.50
2022-11-04T17:34:53.254Z,10.60
2022-11-04T17:37:39.552Z,10.60
2022-11-04T17:40:25.863Z,10.60
2022-11-04T17:43:30.300Z,10.60
2022-11-04T17:46:35.258Z,10.60
2022-11-04T17:49:23.710Z,10.60
2022-11-04T17:52:12.350Z,10.70
2022-11-04T17:54:58.725Z,10.60
2022-11-04T17:57:44.648Z,10.60
2022-11-04T18:00:30.526Z,10.60
2022-11-04T18:03:16.966Z,10.50
2022-11-04T18:06:04.354Z,10.40
2022-11-04T18:08:53.530Z,10.30
2022-11-04T18:11:58.198Z,10.30
2022-11-04T18:14:44.099Z,10.20
2022-11-04T18:17:31.127Z,10.10
2022-11-04T18:20:17.101Z,10.00
2022-11-04T18:23:05.821Z,9.90
2022-11-04T18:25:53.725Z,9.80
2022-11-04T18:28:41.972Z,9.70
2022-11-04T18:31:33.967Z,9.60
2022-11-04T18:34:25.703Z,9.50
2022-11-04T18:37:14.777Z,9.50
2022-11-04T18:40:01.007Z,9.40
2022-11-04T18:42:47.026Z,9.40
2022-11-04T18:45:33.109Z,9.30
2022-11-04T18:48:27.319Z,9.30
2022-11-04T18:51:13.974Z,9.20
2022-11-04T18:54:04.333Z,9.10
2022-11-04T18:56:53.329Z,9.10
2022-11-04T18:59:39.407Z,9.20
2022-11-04T19:02:26.160Z,9.10
2022-11-04T19:05:13.772Z,9.10
2022-11-04T19:08:02.177Z,9.10
2022-11-04T19:11:00.727Z,9.20
2022-11-04T19:13:53.926Z,9.10
2022-11-04T19:16:40.704Z,9.10
2022-11-04T19:19:27.104Z,9.00
2022-11-04T19:22:13.370Z,9.00
2022-11-04T19:24:59.602Z,8.90
2022-11-04T19:27:45.748Z,8.90
2022-11-04T19:30:32.716Z,8.80
2022-11-04T19:33:21.728Z,8.80
2022-11-04T19:36:09.312Z,8.70
2022-11-04T19:38:56.627Z,8.70
2022-11-04T19:42:01.925Z,8.60
2022-11-04T19:44:48.973Z,8.50
2022-11-04T19:47:35.900Z,8.50
2022-11-04T19:50:22.549Z,8.50
2022-11-04T19:53:08.802Z,8.40
2022-11-04T19:55:55.501Z,8.30
2022-11-04T19:58:44.961Z,8.20
2022-11-04T20:01:32.870Z,8.20
2022-11-04T20:04:19.537Z,8.20
2022-11-04T20:07:05.906Z,8.20
2022-11-04T20:09:53.651Z,8.10
2022-11-04T20:12:58.651Z,8.10
2022-11-04T20:15:49.075Z,8.10
2022-11-04T20:18:35.087Z,8.10
2022-11-04T20:21:22.639Z,8.10
2022-11-04T20:24:11.847Z,8.10
2022-11-04T20:26:58.237Z,8.10
2022-11-04T20:29:46.456Z,8.00
2022-11-04T20:32:37.971Z,8.00
2022-11-04T20:35:23.829Z,8.00
2022-11-04T20:38:10.146Z,7.90
2022-11-04T20:41:09.100Z,7.90
2022-11-04T20:43:58.773Z,7.90
2022-11-04T20:46:45.910Z,7.90
2022-11-04T20:49:34.655Z,7.80
2022-11-04T20:52:21.186Z,7.80
2022-11-04T20:55:08.026Z,7.80
2022-11-04T20:58:00.439Z,7.70
2022-11-04T21:00:47.021Z,7.70
2022-11-04T21:03:33.066Z,7.60
2022-11-04T21:06:20.138Z,7.70
2022-11-04T21:09:08.731Z,7.60
2022-11-04T21:11:54.571Z,7.60
2022-11-04T21:14:40.808Z,7.60
2022-11-04T21:17:27.033Z,7.60
2022-11-04T21:20:13.117Z,7.50
2022-11-04T21:22:59.025Z,7.50
2022-11-04T21:25:48.604Z,7.60
2022-11-04T21:28:34.907Z,7.60
2022-11-04T21:31:21.364Z,7.60
2022-11-04T21:34:07.696Z,7.60
2022-11-04T21:36:54.031Z,7.60
2022-11-04T21:39:42.577Z,7.50
2022-11-04T21:42:28.685Z,7.60
2022-11-04T21:45:17.499Z,7.60
2022-11-04T21:48:03.786Z,7.60
2022-11-04T21:50:50.493Z,7.50
2022-11-04T21:53:36.571Z,7.50
2022-11-04T21:56:26.054Z,7.50
2022-11-04T21:59:17.985Z,7.50
2022-11-04T22:02:04.495Z,7.50
2022-11-04T22:04:50.732Z,7.50
2022-11-04T22:07:54.847Z,7.50
2022-11-04T22:10:41.128Z,7.50
2022-11-04T22:13:27.640Z,7.40
2022-11-04T22:16:19.246Z,7.40
2022-11-04T22:19:07.510Z,7.40
2022-11-04T22:21:53.647Z,7.30
2022-11-04T22:24:43.063Z,7.30
2022-11-04T22:27:30.717Z,7.30
2022-11-04T22:30:17.119Z,7.30
2022-11-04T22:33:03.954Z,7.20
2022-11-04T22:35:50.407Z,7.20
2022-11-04T22:38:37.285Z,7.10
2022-11-04T22:41:31.914Z,7.10
2022-11-04T22:44:17.612Z,7.10
2022-11-04T22:47:03.992Z,7.10
2022-11-04T22:49:49.860Z,7.10
2022-11-04T22:52:36.073Z,7.10
2022-11-04T22:55:22.377Z,7.10
2022-11-04T22:58:08.307Z,7.00
2022-11-04T23:00:56.773Z,7.00
2022-11-04T23:03:43.343Z,7.00
2022-11-04T23:06:29.634Z,6.90
2022-11-04T23:09:15.533Z,6.90
2022-11-04T23:12:20.518Z,6.90
2022-11-04T23:15:25.308Z,6.90
2022-11-04T23:18:31.566Z,6.90
2022-11-04T23:21:39.419Z,6.90
2022-11-04T23:24:44.281Z,6.90
2022-11-04T23:27:50.044Z,6.80
2022-11-04T23:30:39.309Z,6.70
2022-11-04T23:33:45.409Z,6.70
2022-11-04T23:36:50.279Z,6.70
2022-11-04T23:39:36.246Z,6.60
2022-11-04T23:42:23.081Z,6.70
2022-11-04T23:45:28.152Z,6.60
2022-11-04T23:48:32.776Z,6.50
2022-11-04T23:51:37.507Z,6.50
2022-11-04T23:54:41.835Z,6.40
2022-11-04T23:57:46.566Z,6.40
